createdAt,value
2023-05-19T00:00:51.104Z,96175.00
2023-05-19T00:01:49.667Z,96167.00
2023-05-19T00:02:50.928Z,96167.00
2023-05-19T00:03:49.856Z,96175.00
2023-05-19T00:04:50.855Z,96167.00
2023-05-19T00:05:50.846Z,96165.00
2023-05-19T00:06:49.960Z,96163.00
2023-05-19T00:07:49.959Z,96165.00
2023-05-19T00:08:49.792Z,96161.00
2023-05-19T00:09:50.903Z,96163.00
2023-05-19T00:10:50.870Z,96161.00
2023-05-19T00:11:50.813Z,96161.00
2023-05-19T00:12:50.544Z,96159.00
2023-05-19T00:13:49.846Z,96159.00
2023-05-19T00:14:49.953Z,96159.00
2023-05-19T00:15:51.075Z,96155.00
2023-05-19T00:16:49.956Z,96155.00
2023-05-19T00:17:50.283Z,96159.00
2023-05-19T00:18:51.177Z,96155.00
2023-05-19T00:19:50.020Z,96159.00
2023-05-19T00:20:51.041Z,96157.00
2023-05-19T00:21:50.177Z,96157.00
2023-05-19T00:22:50.277Z,96157.00
2023-05-19T00:23:50.278Z,96155.00
2023-05-19T00:24:51.339Z,96155.00
2023-05-19T00:25:51.329Z,96157.00
2023-05-19T00:26:50.184Z,96157.00
2023-05-19T00:27:51.148Z,96155.00
2023-05-19T00:28:50.315Z,96155.00
2023-05-19T00:29:50.331Z,96153.00
2023-05-19T00:30:51.312Z,96149.00
2023-05-19T00:31:50.302Z,96151.00
2023-05-19T00:32:50.371Z,96153.00
2023-05-19T00:33:51.264Z,96153.00
2023-05-19T00:34:51.434Z,96155.00
2023-05-19T00:35:50.537Z,96155.00
2023-05-19T00:36:50.359Z,96153.00
2023-05-19T00:37:51.418Z,96157.00
2023-05-19T00:38:50.654Z,96157.00
2023-05-19T00:39:51.622Z,96157.00
2023-05-19T00:40:50.452Z,96159.00
2023-05-19T00:41:50.562Z,96157.00
2023-05-19T00:42:50.478Z,96161.00
2023-05-19T00:43:51.472Z,96161.00
2023-05-19T00:44:50.547Z,96161.00
2023-05-19T00:45:50.719Z,96157.00
2023-05-19T00:46:51.748Z,96159.00
2023-05-19T00:47:51.578Z,96155.00
2023-05-19T00:48:50.501Z,96157.00
2023-05-19T00:49:51.582Z,96157.00
2023-05-19T00:50:51.475Z,96159.00
2023-05-19T00:51:51.487Z,96157.00
2023-05-19T00:52:50.526Z,96157.00
2023-05-19T00:53:50.679Z,96157.00
2023-05-19T00:54:50.593Z,96155.00
2023-05-19T00:55:50.657Z,96155.00
2023-05-19T00:56:50.569Z,96155.00
2023-05-19T00:57:50.630Z,96155.00
2023-05-19T00:58:50.598Z,96155.00
2023-05-19T00:59:51.593Z,96155.00
2023-05-19T01:00:51.622Z,96149.00
2023-05-19T01:01:50.617Z,96151.00
2023-05-19T01:02:50.646Z,96149.00
2023-05-19T01:03:50.722Z,96149.00
2023-05-19T01:04:51.780Z,96147.00
2023-05-19T01:05:50.687Z,96147.00
2023-05-19T01:06:51.656Z,96153.00
2023-05-19T01:07:50.923Z,96151.00
2023-05-19T01:08:51.731Z,96153.00
2023-05-19T01:09:50.685Z,96155.00
2023-05-19T01:10:51.829Z,96155.00
2023-05-19T01:11:51.794Z,96157.00
2023-05-19T01:12:50.972Z,96155.00
2023-05-19T01:13:50.842Z,96153.00
2023-05-19T01:14:51.721Z,96151.00
2023-05-19T01:15:50.762Z,96153.00
2023-05-19T01:16:51.927Z,96155.00
2023-05-19T01:17:50.980Z,96151.00
2023-05-19T01:18:50.951Z,96151.00
2023-05-19T01:19:50.867Z,96151.00
2023-05-19T01:20:50.896Z,96151.00
2023-05-19T01:21:50.808Z,96153.00
2023-05-19T01:22:51.779Z,96153.00
2023-05-19T01:23:50.856Z,96151.00
2023-05-19T01:24:50.769Z,96151.00
2023-05-19T01:25:50.776Z,96151.00
2023-05-19T01:26:50.895Z,96153.00
2023-05-19T01:27:51.789Z,96151.00
2023-05-19T01:28:50.773Z,96151.00
2023-05-19T01:29:51.782Z,96153.00
2023-05-19T01:30:51.750Z,96153.00
2023-05-19T01:31:51.006Z,96151.00
2023-05-19T01:32:51.013Z,96149.00
2023-05-19T01:33:51.760Z,96151.00
2023-05-19T01:34:50.854Z,96151.00
2023-05-19T01:35:50.807Z,96149.00
2023-05-19T01:36:50.872Z,96151.00
2023-05-19T01:37:50.936Z,96147.00
2023-05-19T01:38:51.965Z,96143.00
2023-05-19T01:39:50.859Z,96147.00
2023-05-19T01:40:51.765Z,96143.00
2023-05-19T01:41:52.030Z,96145.00
2023-05-19T01:42:50.887Z,96141.00
2023-05-19T01:43:50.855Z,96143.00
2023-05-19T01:44:51.796Z,96141.00
2023-05-19T01:45:51.846Z,96139.00
2023-05-19T01:46:51.837Z,96141.00
2023-05-19T01:47:51.949Z,96139.00
2023-05-19T01:48:50.843Z,96141.00
2023-05-19T01:49:51.840Z,96141.00
2023-05-19T01:50:51.875Z,96141.00
2023-05-19T01:51:51.829Z,96141.00
2023-05-19T01:52:52.662Z,96141.00
2023-05-19T01:53:51.872Z,96143.00
2023-05-19T01:54:51.960Z,96141.00
2023-05-19T01:55:50.946Z,96143.00
2023-05-19T01:56:50.934Z,96145.00
2023-05-19T01:57:50.829Z,96145.00
2023-05-19T01:58:51.829Z,96145.00
2023-05-19T01:59:51.787Z,96145.00
2023-05-19T02:00:51.973Z,96145.00
2023-05-19T02:01:51.755Z,96141.00
2023-05-19T02:02:50.840Z,96143.00
2023-05-19T02:03:51.892Z,96141.00
2023-05-19T02:04:52.109Z,96143.00
2023-05-19T02:05:50.846Z,96141.00
2023-05-19T02:06:50.845Z,96143.00
2023-05-19T02:07:50.994Z,96141.00
2023-05-19T02:08:51.942Z,96143.00
2023-05-19T02:09:51.793Z,96143.00
2023-05-19T02:10:50.867Z,96143.00
2023-05-19T02:11:51.869Z,96143.00
2023-05-19T02:12:50.814Z,96143.00
2023-05-19T02:13:51.086Z,96139.00
2023-05-19T02:14:51.749Z,96141.00
2023-05-19T02:15:50.808Z,96141.00
2023-05-19T02:16:51.836Z,96141.00
2023-05-19T02:17:52.070Z,96143.00
2023-05-19T02:18:51.025Z,96143.00
2023-05-19T02:19:51.957Z,96143.00
2023-05-19T02:20:51.910Z,96145.00
2023-05-19T02:21:50.754Z,96145.00
2023-05-19T02:22:51.842Z,96147.00
2023-05-19T02:23:50.778Z,96145.00
2023-05-19T02:24:50.772Z,96145.00
2023-05-19T02:25:50.794Z,96143.00
2023-05-19T02:26:50.943Z,96145.00
2023-05-19T02:27:51.809Z,96141.00
2023-05-19T02:28:50.911Z,96145.00
2023-05-19T02:29:51.891Z,96143.00
2023-05-19T02:30:50.745Z,96147.00
2023-05-19T02:31:50.965Z,96145.00
2023-05-19T02:32:51.735Z,96147.00
2023-05-19T02:33:50.764Z,96147.00
2023-05-19T02:34:50.872Z,96147.00
2023-05-19T02:35:50.936Z,96147.00
2023-05-19T02:36:50.806Z,96147.00
2023-05-19T02:37:50.687Z,96147.00
2023-05-19T02:38:51.926Z,96147.00
2023-05-19T02:39:51.938Z,96147.00
2023-05-19T02:40:51.812Z,96149.00
2023-05-19T02:41:50.900Z,96149.00
2023-05-19T02:42:50.695Z,96147.00
2023-05-19T02:43:51.704Z,96145.00
2023-05-19T02:44:50.758Z,96145.00
2023-05-19T02:45:51.734Z,96145.00
2023-05-19T02:46:51.039Z,96143.00
2023-05-19T02:47:51.750Z,96141.00
2023-05-19T02:48:51.806Z,96139.00
2023-05-19T02:49:51.677Z,96139.00
2023-05-19T02:50:51.000Z,96141.00
2023-05-19T02:51:50.974Z,96139.00
2023-05-19T02:52:51.790Z,96139.00
2023-05-19T02:53:51.679Z,96139.00
2023-05-19T02:54:50.714Z,96139.00
2023-05-19T02:55:51.858Z,96137.00
2023-05-19T02:56:51.657Z,96133.00
2023-05-19T02:57:51.688Z,96133.00
2023-05-19T02:58:51.670Z,96135.00
2023-05-19T02:59:50.830Z,96132.00
2023-05-19T03:00:51.650Z,96130.00
2023-05-19T03:01:50.800Z,96132.00
2023-05-19T03:02:50.949Z,96130.00
2023-05-19T03:03:51.805Z,96130.00
2023-05-19T03:04:50.695Z,96132.00
2023-05-19T03:05:50.897Z,96130.00
2023-05-19T03:06:50.771Z,96132.00
2023-05-19T03:07:50.835Z,96130.00
2023-05-19T03:08:50.798Z,96132.00
2023-05-19T03:09:51.680Z,96130.00
2023-05-19T03:10:51.951Z,96130.00
2023-05-19T03:11:50.766Z,96128.00
2023-05-19T03:12:50.732Z,96126.00
2023-05-19T03:13:50.996Z,96126.00
2023-05-19T03:14:50.738Z,96124.00
2023-05-19T03:15:50.671Z,96126.00
2023-05-19T03:16:51.746Z,96124.00
2023-05-19T03:17:50.788Z,96124.00
2023-05-19T03:18:50.665Z,96124.00
2023-05-19T03:19:51.708Z,96124.00
2023-05-19T03:20:50.777Z,96124.00
2023-05-19T03:21:51.838Z,96122.00
2023-05-19T03:22:50.711Z,96122.00
2023-05-19T03:23:51.686Z,96128.00
2023-05-19T03:24:50.697Z,96124.00
2023-05-19T03:25:51.860Z,96126.00
2023-05-19T03:26:50.659Z,96128.00
2023-05-19T03:27:50.881Z,96126.00
2023-05-19T03:28:50.723Z,96126.00
2023-05-19T03:29:50.768Z,96126.00
2023-05-19T03:30:51.005Z,96126.00
2023-05-19T03:31:51.710Z,96126.00
2023-05-19T03:32:51.974Z,96126.00
2023-05-19T03:33:50.955Z,96126.00
2023-05-19T03:34:51.812Z,96126.00
2023-05-19T03:35:50.678Z,96128.00
2023-05-19T03:36:50.779Z,96128.00
2023-05-19T03:37:50.721Z,96128.00
2023-05-19T03:38:50.656Z,96128.00
2023-05-19T03:39:51.868Z,96122.00
2023-05-19T03:40:50.664Z,96120.00
2023-05-19T03:41:50.666Z,96126.00
2023-05-19T03:42:50.676Z,96120.00
2023-05-19T03:43:50.752Z,96126.00
2023-05-19T03:44:50.681Z,96126.00
2023-05-19T03:45:51.877Z,96124.00
2023-05-19T03:46:50.826Z,96120.00
2023-05-19T03:47:50.769Z,96128.00
2023-05-19T03:48:50.694Z,96126.00
2023-05-19T03:49:51.772Z,96126.00
2023-05-19T03:50:50.689Z,96132.00
2023-05-19T03:51:51.727Z,96130.00
2023-05-19T03:52:51.838Z,96135.00
2023-05-19T03:53:51.756Z,96130.00
2023-05-19T03:54:50.676Z,96130.00
2023-05-19T03:55:50.719Z,96132.00
2023-05-19T03:56:50.674Z,96132.00
2023-05-19T03:57:51.681Z,96132.00
2023-05-19T03:58:50.850Z,96133.00
2023-05-19T03:59:50.786Z,96133.00
2023-05-19T04:00:50.693Z,96133.00
2023-05-19T04:01:50.851Z,96135.00
2023-05-19T04:02:50.793Z,96135.00
2023-05-19T04:03:51.714Z,96135.00
2023-05-19T04:04:51.828Z,96135.00
2023-05-19T04:05:50.753Z,96135.00
2023-05-19T04:06:51.708Z,96135.00
2023-05-19T04:07:51.716Z,96135.00
2023-05-19T04:08:51.722Z,96135.00
2023-05-19T04:09:50.718Z,96133.00
2023-05-19T04:10:51.866Z,96135.00
2023-05-19T04:11:50.818Z,96130.00
2023-05-19T04:12:50.750Z,96130.00
2023-05-19T04:13:50.768Z,96130.00
2023-05-19T04:14:51.837Z,96132.00
2023-05-19T04:15:50.806Z,96132.00
2023-05-19T04:16:51.774Z,96130.00
2023-05-19T04:17:50.863Z,96130.00
2023-05-19T04:18:51.846Z,96130.00
2023-05-19T04:19:51.787Z,96132.00
2023-05-19T04:20:50.810Z,96132.00
2023-05-19T04:21:51.902Z,96130.00
2023-05-19T04:22:51.851Z,96128.00
2023-05-19T04:23:51.896Z,96128.00
2023-05-19T04:24:51.866Z,96126.00
2023-05-19T04:25:50.932Z,96126.00
2023-05-19T04:26:50.873Z,96126.00
2023-05-19T04:27:50.873Z,96126.00
2023-05-19T04:28:50.863Z,96126.00
2023-05-19T04:29:51.901Z,96128.00
2023-05-19T04:30:50.902Z,96126.00
2023-05-19T04:31:50.900Z,96128.00
2023-05-19T04:32:52.104Z,96130.00
2023-05-19T04:33:51.939Z,96132.00
2023-05-19T04:34:50.918Z,96132.00
2023-05-19T04:35:51.999Z,96130.00
2023-05-19T04:36:53.510Z,96130.00
2023-05-19T04:37:51.189Z,96128.00
2023-05-19T04:38:51.161Z,96128.00
2023-05-19T04:39:51.188Z,96130.00
2023-05-19T04:40:52.189Z,96130.00
2023-05-19T04:41:52.177Z,96130.00
2023-05-19T04:42:52.195Z,96128.00
2023-05-19T04:43:51.176Z,96130.00
2023-05-19T04:44:52.232Z,96130.00
2023-05-19T04:45:52.193Z,96130.00
2023-05-19T04:46:52.262Z,96130.00
2023-05-19T04:47:51.204Z,96130.00
2023-05-19T04:48:52.226Z,96128.00
2023-05-19T04:49:52.204Z,96128.00
2023-05-19T04:50:51.202Z,96128.00
2023-05-19T04:51:52.316Z,96126.00
2023-05-19T04:52:51.218Z,96126.00
2023-05-19T04:53:51.208Z,96124.00
2023-05-19T04:54:51.186Z,96124.00
2023-05-19T04:55:51.183Z,96124.00
2023-05-19T04:56:52.207Z,96126.00
2023-05-19T04:57:51.179Z,96124.00
2023-05-19T04:58:52.167Z,96126.00
2023-05-19T04:59:51.180Z,96126.00
2023-05-19T05:00:51.170Z,96126.00
2023-05-19T05:01:52.155Z,96124.00
2023-05-19T05:02:51.331Z,96124.00
2023-05-19T05:03:51.134Z,96126.00
2023-05-19T05:04:52.119Z,96126.00
2023-05-19T05:05:52.129Z,96128.00
2023-05-19T05:06:52.089Z,96128.00
2023-05-19T05:07:52.135Z,96128.00
2023-05-19T05:08:52.089Z,96128.00
2023-05-19T05:09:51.122Z,96128.00
2023-05-19T05:10:52.088Z,96126.00
2023-05-19T05:11:51.056Z,96122.00
2023-05-19T05:12:52.054Z,96122.00
2023-05-19T05:13:52.080Z,96122.00
2023-05-19T05:14:52.132Z,96122.00
2023-05-19T05:15:52.074Z,96120.00
2023-05-19T05:16:52.190Z,96122.00
2023-05-19T05:17:52.085Z,96124.00
2023-05-19T05:18:52.046Z,96124.00
2023-05-19T05:19:51.023Z,96124.00
2023-05-19T05:20:51.010Z,96126.00
2023-05-19T05:21:52.323Z,96124.00
2023-05-19T05:22:52.122Z,96124.00
2023-05-19T05:23:52.009Z,96120.00
2023-05-19T05:24:52.055Z,96120.00
2023-05-19T05:25:52.004Z,96118.00
2023-05-19T05:26:51.972Z,96118.00
2023-05-19T05:27:50.950Z,96118.00
2023-05-19T05:28:52.004Z,96118.00
2023-05-19T05:29:51.948Z,96120.00
2023-05-19T05:30:51.921Z,96120.00
2023-05-19T05:31:51.088Z,96118.00
2023-05-19T05:32:52.101Z,96122.00
2023-05-19T05:33:51.931Z,96124.00
2023-05-19T05:34:51.907Z,96126.00
2023-05-19T05:35:50.883Z,96126.00
2023-05-19T05:36:52.110Z,96122.00
2023-05-19T05:37:50.946Z,96124.00
2023-05-19T05:38:50.876Z,96126.00
2023-05-19T05:39:51.875Z,96126.00
2023-05-19T05:40:51.965Z,96126.00
2023-05-19T05:41:50.884Z,96124.00
2023-05-19T05:42:51.856Z,96124.00
2023-05-19T05:43:50.892Z,96124.00
2023-05-19T05:44:51.865Z,96126.00
2023-05-19T05:45:51.900Z,96122.00
2023-05-19T05:46:51.815Z,96126.00
2023-05-19T05:47:50.906Z,96126.00
2023-05-19T05:48:50.909Z,96126.00
2023-05-19T05:49:52.986Z,96126.00
2023-05-19T05:50:50.890Z,96124.00
2023-05-19T05:52:05.136Z,96126.00
2023-05-19T05:52:51.821Z,96126.00
2023-05-19T05:53:50.793Z,96126.00
2023-05-19T05:54:50.922Z,96126.00
2023-05-19T05:55:51.775Z,96128.00
2023-05-19T05:56:50.756Z,96124.00
2023-05-19T05:57:51.772Z,96126.00
2023-05-19T05:58:51.764Z,96126.00
2023-05-19T05:59:51.851Z,96126.00
2023-05-19T06:00:50.736Z,96124.00
2023-05-19T06:01:51.753Z,96122.00
2023-05-19T06:02:50.849Z,96122.00
2023-05-19T06:03:50.942Z,96120.00
2023-05-19T06:04:51.714Z,96122.00
2023-05-19T06:05:50.843Z,96122.00
2023-05-19T06:06:50.707Z,96122.00
2023-05-19T06:07:50.749Z,96124.00
2023-05-19T06:08:50.695Z,96124.00
2023-05-19T06:09:50.665Z,96124.00
2023-05-19T06:10:51.659Z,96124.00
2023-05-19T06:11:50.689Z,96120.00
2023-05-19T06:12:51.707Z,96120.00
2023-05-19T06:13:51.690Z,96120.00
2023-05-19T06:14:50.639Z,96118.00
2023-05-19T06:15:51.722Z,96118.00
2023-05-19T06:16:50.793Z,96118.00
2023-05-19T06:17:51.663Z,96118.00
2023-05-19T06:18:50.667Z,96116.00
2023-05-19T06:19:50.688Z,96116.00
2023-05-19T06:20:50.614Z,96118.00
2023-05-19T06:21:51.621Z,96120.00
2023-05-19T06:22:51.754Z,96122.00
2023-05-19T06:23:51.582Z,96124.00
2023-05-19T06:24:51.605Z,96122.00
2023-05-19T06:25:50.555Z,96124.00
2023-05-19T06:26:50.588Z,96126.00
2023-05-19T06:27:51.552Z,96122.00
2023-05-19T06:28:51.560Z,96124.00
2023-05-19T06:29:51.735Z,96126.00
2023-05-19T06:30:50.566Z,96124.00
2023-05-19T06:31:50.792Z,96122.00
2023-05-19T06:32:51.553Z,96124.00
2023-05-19T06:33:51.504Z,96124.00
2023-05-19T06:34:51.604Z,96126.00
2023-05-19T06:35:50.513Z,96126.00
2023-05-19T06:36:51.510Z,96128.00
2023-05-19T06:37:50.487Z,96126.00
2023-05-19T06:38:50.632Z,96124.00
2023-05-19T06:39:51.507Z,96122.00
2023-05-19T06:40:51.480Z,96120.00
2023-05-19T06:41:50.453Z,96118.00
2023-05-19T06:42:50.504Z,96116.00
2023-05-19T06:43:51.462Z,96118.00
2023-05-19T06:44:51.478Z,96118.00
2023-05-19T06:45:51.546Z,96120.00
2023-05-19T06:46:51.566Z,96122.00
2023-05-19T06:47:51.472Z,96122.00
2023-05-19T06:48:50.444Z,96126.00
2023-05-19T06:49:50.395Z,96124.00
2023-05-19T06:50:51.575Z,96126.00
2023-05-19T06:51:50.396Z,96126.00
2023-05-19T06:52:50.434Z,96124.00
2023-05-19T06:53:51.372Z,96124.00
2023-05-19T06:54:51.516Z,96122.00
2023-05-19T06:55:58.773Z,96122.00
2023-05-19T06:56:51.412Z,96124.00
2023-05-19T06:57:51.522Z,96120.00
2023-05-19T06:58:51.384Z,96120.00
2023-05-19T06:59:51.483Z,96118.00
2023-05-19T07:00:50.356Z,96114.00
2023-05-19T07:01:51.538Z,96118.00
2023-05-19T07:02:51.682Z,96112.00
2023-05-19T07:03:50.461Z,96112.00
2023-05-19T07:04:51.347Z,96114.00
2023-05-19T07:05:50.308Z,96112.00
2023-05-19T07:06:51.291Z,96116.00
2023-05-19T07:07:51.300Z,96118.00
2023-05-19T07:08:50.333Z,96124.00
2023-05-19T07:09:50.276Z,96118.00
2023-05-19T07:10:50.253Z,96122.00
2023-05-19T07:11:50.373Z,96120.00
2023-05-19T07:12:51.274Z,96122.00
2023-05-19T07:13:50.235Z,96118.00
2023-05-19T07:14:50.316Z,96118.00
2023-05-19T07:15:51.237Z,96118.00
2023-05-19T07:16:51.315Z,96114.00
2023-05-19T07:17:50.330Z,96116.00
2023-05-19T07:18:50.383Z,96114.00
2023-05-19T07:19:50.234Z,96112.00
2023-05-19T07:20:51.228Z,96112.00
2023-05-19T07:21:50.283Z,96110.00
2023-05-19T07:22:50.182Z,96110.00
2023-05-19T07:23:51.203Z,96110.00
2023-05-19T07:24:50.214Z,96108.00
2023-05-19T07:25:51.154Z,96110.00
2023-05-19T07:26:50.216Z,96110.00
2023-05-19T07:27:51.132Z,96108.00
2023-05-19T07:28:51.140Z,96108.00
2023-05-19T07:29:51.159Z,96108.00
2023-05-19T07:30:51.178Z,96104.00
2023-05-19T07:31:51.180Z,96106.00
2023-05-19T07:32:51.115Z,96102.00
2023-05-19T07:33:51.586Z,96098.00
2023-05-19T07:34:50.122Z,96100.00
2023-05-19T07:35:50.124Z,96100.00
2023-05-19T07:36:50.082Z,96098.00
2023-05-19T07:37:51.180Z,96096.00
2023-05-19T07:38:50.178Z,96096.00
2023-05-19T07:39:51.084Z,96096.00
2023-05-19T07:40:50.107Z,96094.00
2023-05-19T07:41:51.123Z,96090.00
2023-05-19T07:42:50.204Z,96092.00
2023-05-19T07:43:51.032Z,96088.00
2023-05-19T07:44:50.154Z,96090.00
2023-05-19T07:45:50.048Z,96090.00
2023-05-19T07:46:51.059Z,96088.00
2023-05-19T07:47:50.181Z,96088.00
2023-05-19T07:48:50.018Z,96086.00
2023-05-19T07:49:51.799Z,96086.00
2023-05-19T07:50:51.000Z,96084.00
2023-05-19T07:51:50.011Z,96082.00
2023-05-19T07:52:49.999Z,96082.00
2023-05-19T07:53:49.966Z,96081.00
2023-05-19T07:54:50.968Z,96079.00
2023-05-19T07:55:50.964Z,96077.00
2023-05-19T07:56:49.936Z,96077.00
2023-05-19T07:57:50.973Z,96073.00
2023-05-19T07:58:50.976Z,96075.00
2023-05-19T07:59:49.942Z,96071.00
2023-05-19T08:00:50.949Z,96069.00
2023-05-19T08:01:50.938Z,96073.00
2023-05-19T08:02:49.998Z,96069.00
2023-05-19T08:03:50.977Z,96067.00
2023-05-19T08:04:50.906Z,96069.00
2023-05-19T08:05:50.001Z,96069.00
2023-05-19T08:06:51.049Z,96065.00
2023-05-19T08:07:51.023Z,96065.00
2023-05-19T08:08:51.039Z,96063.00
2023-05-19T08:09:50.171Z,96063.00
2023-05-19T08:10:50.096Z,96065.00
2023-05-19T08:11:51.133Z,96063.00
2023-05-19T08:12:50.171Z,96063.00
2023-05-19T08:13:51.201Z,96061.00
2023-05-19T08:14:50.212Z,96061.00
2023-05-19T08:15:50.254Z,96063.00
2023-05-19T08:16:50.278Z,96061.00
2023-05-19T08:17:50.481Z,96061.00
2023-05-19T08:18:51.466Z,96061.00
2023-05-19T08:19:50.547Z,96059.00
2023-05-19T08:20:51.396Z,96059.00
2023-05-19T08:21:50.489Z,96059.00
2023-05-19T08:22:51.465Z,96059.00
2023-05-19T08:23:51.530Z,96057.00
2023-05-19T08:24:51.534Z,96059.00
2023-05-19T08:25:50.608Z,96055.00
2023-05-19T08:26:50.674Z,96061.00
2023-05-19T08:27:51.641Z,96057.00
2023-05-19T08:28:51.644Z,96061.00
2023-05-19T08:29:51.729Z,96059.00
2023-05-19T08:30:50.775Z,96061.00
2023-05-19T08:31:50.898Z,96059.00
2023-05-19T08:32:51.909Z,96059.00
2023-05-19T08:33:51.889Z,96059.00
2023-05-19T08:34:50.942Z,96061.00
2023-05-19T08:35:50.969Z,96057.00
2023-05-19T08:36:51.981Z,96061.00
2023-05-19T08:37:52.047Z,96059.00
2023-05-19T08:38:51.061Z,96057.00
2023-05-19T08:39:52.102Z,96055.00
2023-05-19T08:40:51.149Z,96051.00
2023-05-19T08:41:51.159Z,96049.00
2023-05-19T08:42:52.327Z,96051.00
2023-05-19T08:43:51.266Z,96055.00
2023-05-19T08:44:52.277Z,96051.00
2023-05-19T08:45:52.294Z,96051.00
2023-05-19T08:46:51.410Z,96051.00
2023-05-19T08:47:52.442Z,96049.00
2023-05-19T08:48:51.483Z,96045.00
2023-05-19T08:49:51.542Z,96043.00
2023-05-19T08:50:52.492Z,96045.00
2023-05-19T08:51:52.503Z,96045.00
2023-05-19T08:52:53.422Z,96039.00
2023-05-19T08:53:52.611Z,96039.00
2023-05-19T08:54:51.596Z,96037.00
2023-05-19T08:55:52.655Z,96034.00
2023-05-19T08:56:52.608Z,96034.00
2023-05-19T08:57:51.662Z,96032.00
2023-05-19T08:58:51.652Z,96034.00
2023-05-19T08:59:51.737Z,96032.00
2023-05-19T09:00:51.740Z,96032.00
2023-05-19T09:01:52.751Z,96030.00
2023-05-19T09:03:00.420Z,96032.00
2023-05-19T09:03:52.880Z,96030.00
2023-05-19T09:04:51.777Z,96030.00
2023-05-19T09:05:52.744Z,96030.00
2023-05-19T09:06:52.715Z,96030.00
2023-05-19T09:07:52.732Z,96032.00
2023-05-19T09:08:52.701Z,96030.00
2023-05-19T09:09:51.768Z,96026.00
2023-05-19T09:10:52.923Z,96026.00
2023-05-19T09:11:51.689Z,96028.00
2023-05-19T09:12:51.746Z,96030.00
2023-05-19T09:13:51.727Z,96032.00
2023-05-19T09:14:52.754Z,96022.00
2023-05-19T09:15:52.774Z,96028.00
2023-05-19T09:16:51.897Z,96024.00
2023-05-19T09:17:51.982Z,96022.00
2023-05-19T09:18:52.949Z,96018.00
2023-05-19T09:19:53.002Z,96016.00
2023-05-19T09:20:52.015Z,96014.00
2023-05-19T09:21:53.051Z,96012.00
2023-05-19T09:22:52.094Z,96014.00
2023-05-19T09:23:53.221Z,96012.00
2023-05-19T09:24:53.465Z,96010.00
2023-05-19T09:25:53.456Z,96008.00
2023-05-19T09:26:52.336Z,96010.00
2023-05-19T09:27:52.566Z,96010.00
2023-05-19T09:28:53.459Z,96010.00
2023-05-19T09:29:52.485Z,96010.00
2023-05-19T09:30:53.591Z,96008.00
2023-05-19T09:31:52.731Z,96008.00
2023-05-19T09:32:53.719Z,96008.00
2023-05-19T09:33:53.758Z,96006.00
2023-05-19T09:34:52.824Z,96004.00
2023-05-19T09:35:53.871Z,96006.00
2023-05-19T09:36:52.933Z,96008.00
2023-05-19T09:37:53.043Z,96004.00
2023-05-19T09:38:53.093Z,96002.00
2023-05-19T09:39:53.161Z,96004.00
2023-05-19T09:40:54.279Z,95998.00
2023-05-19T09:41:54.346Z,95998.00
2023-05-19T09:42:54.315Z,96000.00
2023-05-19T09:43:54.383Z,95996.00
2023-05-19T09:44:54.465Z,95996.00
2023-05-19T09:45:53.522Z,95994.00
2023-05-19T09:46:53.591Z,95998.00
2023-05-19T09:47:53.623Z,95996.00
2023-05-19T09:48:53.701Z,95994.00
2023-05-19T09:49:54.746Z,95990.00
2023-05-19T09:50:53.997Z,95996.00
2023-05-19T09:51:54.873Z,95987.00
2023-05-19T09:52:53.934Z,95990.00
2023-05-19T09:53:55.135Z,95990.00
2023-05-19T09:54:55.091Z,95988.00
2023-05-19T09:55:54.114Z,95990.00
2023-05-19T09:56:54.170Z,95994.00
2023-05-19T09:57:55.336Z,95994.00
2023-05-19T09:58:55.309Z,95992.00
2023-05-19T09:59:54.642Z,95990.00
2023-05-19T10:00:54.440Z,95988.00
2023-05-19T10:01:54.665Z,95987.00
2023-05-19T10:02:55.586Z,95985.00
2023-05-19T10:03:55.589Z,95983.00
2023-05-19T10:04:55.672Z,95985.00
2023-05-19T10:05:55.735Z,95979.00
2023-05-19T10:06:54.747Z,95977.00
2023-05-19T10:07:54.784Z,95975.00
2023-05-19T10:08:54.857Z,95971.00
2023-05-19T10:09:56.723Z,95969.00
2023-05-19T10:10:55.106Z,95967.00
2023-05-19T10:11:55.907Z,95971.00
2023-05-19T10:12:55.924Z,95971.00
2023-05-19T10:13:54.916Z,95971.00
2023-05-19T10:14:55.883Z,95973.00
2023-05-19T10:15:59.262Z,95973.00
2023-05-19T10:16:56.072Z,95971.00
2023-05-19T10:17:55.889Z,95971.00
2023-05-19T10:18:56.018Z,95969.00
2023-05-19T10:19:54.916Z,95969.00
2023-05-19T10:20:54.904Z,95963.00
2023-05-19T10:21:55.832Z,95963.00
2023-05-19T10:22:55.838Z,95963.00
2023-05-19T10:23:54.822Z,95963.00
2023-05-19T10:24:56.018Z,95963.00
2023-05-19T10:25:54.802Z,95959.00
2023-05-19T10:26:54.848Z,95961.00
2023-05-19T10:27:55.892Z,95959.00
2023-05-19T10:28:55.928Z,95959.00
2023-05-19T10:29:55.032Z,95959.00
2023-05-19T10:30:55.018Z,95957.00
2023-05-19T10:31:56.274Z,95955.00
2023-05-19T10:32:56.126Z,95955.00
2023-05-19T10:33:55.147Z,95953.00
2023-05-19T10:34:56.195Z,95951.00
2023-05-19T10:35:55.441Z,95947.00
2023-05-19T10:36:55.296Z,95947.00
2023-05-19T10:37:56.392Z,95947.00
2023-05-19T10:38:56.396Z,95945.00
2023-05-19T10:39:56.428Z,95943.00
2023-05-19T10:40:56.500Z,95943.00
2023-05-19T10:41:56.580Z,95943.00
2023-05-19T10:42:56.599Z,95945.00
2023-05-19T10:43:55.603Z,95947.00
2023-05-19T10:44:55.673Z,95947.00
2023-05-19T10:45:56.752Z,95947.00
2023-05-19T10:46:57.241Z,95949.00
2023-05-19T10:47:55.889Z,95945.00
2023-05-19T10:48:56.861Z,95951.00
2023-05-19T10:49:55.935Z,95951.00
2023-05-19T10:50:57.203Z,95945.00
2023-05-19T10:51:56.016Z,95949.00
2023-05-19T10:52:57.026Z,95945.00
2023-05-19T10:53:57.032Z,95945.00
2023-05-19T10:54:57.141Z,95943.00
2023-05-19T10:55:56.442Z,95941.00
2023-05-19T10:56:57.194Z,95945.00
2023-05-19T10:57:57.343Z,95943.00
2023-05-19T10:58:56.337Z,95943.00
2023-05-19T10:59:57.472Z,95941.00
2023-05-19T11:00:56.354Z,95941.00
2023-05-19T11:01:56.513Z,95941.00
2023-05-19T11:02:56.525Z,95940.00
2023-05-19T11:03:56.623Z,95941.00
2023-05-19T11:04:56.520Z,95943.00
2023-05-19T11:05:57.616Z,95943.00
2023-05-19T11:06:57.697Z,95941.00
2023-05-19T11:07:57.756Z,95940.00
2023-05-19T11:08:57.726Z,95938.00
2023-05-19T11:09:56.775Z,95938.00
2023-05-19T11:10:56.800Z,95936.00
2023-05-19T11:11:57.837Z,95934.00
2023-05-19T11:13:56.906Z,95934.00
2023-05-19T11:14:57.938Z,95936.00
2023-05-19T11:15:57.024Z,95936.00
2023-05-19T11:16:58.150Z,95936.00
2023-05-19T11:17:57.288Z,95938.00
2023-05-19T11:18:58.207Z,95938.00
2023-05-19T11:19:57.149Z,95936.00
2023-05-19T11:20:57.211Z,95938.00
2023-05-19T11:21:58.220Z,95934.00
2023-05-19T11:22:58.317Z,95936.00
2023-05-19T11:23:57.474Z,95932.00
2023-05-19T11:24:57.528Z,95932.00
2023-05-19T11:25:58.357Z,95934.00
2023-05-19T11:26:57.417Z,95934.00
2023-05-19T11:27:57.427Z,95934.00
2023-05-19T11:28:58.513Z,95932.00
2023-05-19T11:29:57.526Z,95932.00
2023-05-19T11:30:58.518Z,95934.00
2023-05-19T11:31:58.753Z,95934.00
2023-05-19T11:32:58.700Z,95934.00
2023-05-19T11:33:57.612Z,95932.00
2023-05-19T11:34:58.672Z,95932.00
2023-05-19T11:35:59.000Z,95932.00
2023-05-19T11:36:57.843Z,95932.00
2023-05-19T11:37:57.814Z,95930.00
2023-05-19T11:38:57.882Z,95930.00
2023-05-19T11:39:57.936Z,95926.00
2023-05-19T11:40:57.894Z,95930.00
2023-05-19T11:41:58.948Z,95928.00
2023-05-19T11:42:57.950Z,95930.00
2023-05-19T11:43:58.995Z,95932.00
2023-05-19T11:44:58.069Z,95930.00
2023-05-19T11:45:58.174Z,95928.00